Time;durP1;ratioP1;P1;durP2;ratioP2;P2;SDS_P1;SDS_P2;PMS_P1;PMS_P2;Temp;Humidity;BMP_temperature;BMP_pressure;BME280_temperature;BME280_humidity;BME280_pressure;Samples;Min_cycle;Max_cycle;Signal;HPM_P1;HPM_P2
2022/02/28 00:00:32;;;;;;;2.00;0.50;;;;;;;;;;5031378;28;20075;-57
2022/02/28 00:02:58;;;;;;;0.77;0.40;;;;;;;;;;5002320;28;20046;-58
2022/02/28 00:05:24;;;;;;;0.47;0.35;;;;;;;;;;5012770;28;20061;-58
2022/02/28 00:07:50;;;;;;;0.82;0.45;;;;;;;;;;4998107;28;20039;-57
2022/02/28 00:10:17;;;;;;;0.77;0.40;;;;;;;;;;5012043;28;20061;-58
2022/02/28 00:12:43;;;;;;;1.33;0.50;;;;;;;;;;4998994;28;20034;-58
2022/02/28 00:15:10;;;;;;;0.88;0.40;;;;;;;;;;5000949;28;20516;-59
2022/02/28 00:17:36;;;;;;;0.82;0.47;;;;;;;;;;4995935;28;20905;-58
2022/02/28 00:20:03;;;;;;;1.05;0.40;;;;;;;;;;5000822;28;20081;-58
2022/02/28 00:22:29;;;;;;;0.90;0.40;;;;;;;;;;4997101;28;20049;-57
2022/02/28 00:24:55;;;;;;;2.58;0.50;;;;;;;;;;4999396;28;20037;-58
2022/02/28 00:27:21;;;;;;;2.95;0.43;;;;;;;;;;4997674;28;20038;-58
2022/02/28 00:29:47;;;;;;;1.55;0.40;;;;;;;;;;4998918;28;20049;-58
2022/02/28 00:32:13;;;;;;;1.30;0.50;;;;;;;;;;4996451;28;20048;-58
2022/02/28 00:34:39;;;;;;;1.10;0.43;;;;;;;;;;4997362;28;20046;-59
2022/02/28 00:37:05;;;;;;;1.15;0.40;;;;;;;;;;4997055;28;20030;-57
2022/02/28 00:39:31;;;;;;;0.60;0.40;;;;;;;;;;4995852;28;20060;-60
2022/02/28 00:41:56;;;;;;;3.03;0.40;;;;;;;;;;5000091;28;20038;-58
2022/02/28 00:44:23;;;;;;;0.60;0.40;;;;;;;;;;5013848;28;20045;-59
2022/02/28 00:46:48;;;;;;;4.43;0.45;;;;;;;;;;4999803;28;20033;-59
2022/02/28 00:49:14;;;;;;;0.50;0.30;;;;;;;;;;4998279;28;20099;-58
2022/02/28 00:51:40;;;;;;;0.73;0.40;;;;;;;;;;4996075;28;20854;-57
2022/02/28 00:54:07;;;;;;;0.32;0.30;;;;;;;;;;5016867;28;20148;-58
2022/02/28 00:56:33;;;;;;;0.70;0.40;;;;;;;;;;4997902;28;20402;-57
2022/02/28 00:58:58;;;;;;;0.30;0.30;;;;;;;;;;4998781;28;20034;-57
2022/02/28 01:01:24;;;;;;;0.75;0.30;;;;;;;;;;5000150;28;20050;-58
2022/02/28 01:03:50;;;;;;;1.08;0.47;;;;;;;;;;5015993;28;20030;-58
2022/02/28 01:06:16;;;;;;;1.25;0.40;;;;;;;;;;5001543;28;20069;-57
2022/02/28 01:08:42;;;;;;;0.43;0.40;;;;;;;;;;4999416;28;20041;-57
2022/02/28 01:11:08;;;;;;;2.55;0.45;;;;;;;;;;5001046;28;20034;-61
2022/02/28 01:13:34;;;;;;;1.63;0.40;;;;;;;;;;4998233;28;20053;-57
2022/02/28 01:16:00;;;;;;;1.02;0.40;;;;;;;;;;5007353;28;20049;-58
2022/02/28 01:18:26;;;;;;;1.20;0.50;;;;;;;;;;4999398;28;20129;-59
2022/02/28 01:20:53;;;;;;;1.42;0.50;;;;;;;;;;4999659;28;20393;-56
2022/02/28 01:23:19;;;;;;;0.90;0.40;;;;;;;;;;4999226;28;20053;-59
2022/02/28 01:25:45;;;;;;;2.05;0.50;;;;;;;;;;4997915;28;20035;-57
2022/02/28 01:28:11;;;;;;;0.82;0.40;;;;;;;;;;5000539;28;20579;-57
2022/02/28 01:30:37;;;;;;;5.53;0.40;;;;;;;;;;5001117;28;20113;-58
2022/02/28 01:33:03;;;;;;;3.80;0.60;;;;;;;;;;5000270;28;20200;-56
2022/02/28 01:35:29;;;;;;;5.05;0.43;;;;;;;;;;4998545;28;20073;-58
2022/02/28 01:37:55;;;;;;;1.00;0.40;;;;;;;;;;5008297;28;20511;-58
2022/02/28 01:40:21;;;;;;;1.17;0.40;;;;;;;;;;4998977;28;20455;-57
2022/02/28 01:42:47;;;;;;;1.33;0.45;;;;;;;;;;5003783;28;20431;-57
2022/02/28 01:45:14;;;;;;;1.88;0.52;;;;;;;;;;5002519;28;20052;-58
2022/02/28 01:47:40;;;;;;;0.68;0.35;;;;;;;;;;4998921;28;20065;-57
2022/02/28 01:50:06;;;;;;;0.85;0.40;;;;;;;;;;5003380;28;20080;-55
2022/02/28 01:52:32;;;;;;;0.65;0.45;;;;;;;;;;5001309;28;20091;-57
2022/02/28 01:54:58;;;;;;;0.98;0.40;;;;;;;;;;5002738;28;20038;-57
2022/02/28 01:57:24;;;;;;;3.10;0.70;;;;;;;;;;5013062;28;20050;-57
2022/02/28 01:59:51;;;;;;;1.45;0.55;;;;;;;;;;5000445;28;20070;-56
2022/02/28 02:02:17;;;;;;;1.58;0.50;;;;;;;;;;5017505;28;20356;-57
2022/02/28 02:04:43;;;;;;;1.60;0.50;;;;;;;;;;5000916;28;20046;-57
2022/02/28 02:07:10;;;;;;;0.73;0.40;;;;;;;;;;5002609;28;20128;-57
2022/02/28 02:09:36;;;;;;;1.08;0.50;;;;;;;;;;5003094;28;20638;-57
2022/02/28 02:12:04;;;;;;;1.58;0.50;;;;;;;;;;5011439;28;20133;-58
2022/02/28 02:14:32;;;;;;;1.08;0.45;;;;;;;;;;5002058;28;20473;-57
2022/02/28 02:16:58;;;;;;;1.27;0.50;;;;;;;;;;5000502;28;20490;-57
2022/02/28 02:19:24;;;;;;;1.23;0.40;;;;;;;;;;5003268;28;20054;-56
2022/02/28 02:21:50;;;;;;;1.25;0.50;;;;;;;;;;5004802;28;20030;-56
2022/02/28 02:24:16;;;;;;;1.15;0.40;;;;;;;;;;5006525;28;20067;-57
2022/02/28 02:26:42;;;;;;;1.13;0.45;;;;;;;;;;5003631;28;20049;-58
2022/02/28 02:29:08;;;;;;;0.55;0.30;;;;;;;;;;5003273;28;20037;-58
2022/02/28 02:31:34;;;;;;;0.77;0.40;;;;;;;;;;5002807;28;20522;-58
2022/02/28 02:34:00;;;;;;;0.93;0.40;;;;;;;;;;5003718;28;20052;-55
2022/02/28 02:36:26;;;;;;;1.08;0.47;;;;;;;;;;5001826;28;20043;-58
2022/02/28 02:38:53;;;;;;;3.50;0.55;;;;;;;;;;5004170;28;20042;-59
2022/02/28 02:41:19;;;;;;;1.20;0.47;;;;;;;;;;5001140;28;20053;-56
2022/02/28 02:43:45;;;;;;;1.48;0.50;;;;;;;;;;4998088;28;20034;-57
2022/02/28 02:46:11;;;;;;;1.27;0.40;;;;;;;;;;5001062;28;20049;-56
2022/02/28 02:48:37;;;;;;;1.05;0.40;;;;;;;;;;5001180;28;20038;-58
2022/02/28 02:51:03;;;;;;;1.63;0.50;;;;;;;;;;5002504;28;20052;-58
2022/02/28 02:53:29;;;;;;;1.00;0.40;;;;;;;;;;5002620;28;20049;-59
2022/02/28 02:55:55;;;;;;;1.42;0.50;;;;;;;;;;5000384;28;20523;-57
2022/02/28 02:58:21;;;;;;;1.52;0.47;;;;;;;;;;5001563;28;20038;-59
2022/02/28 03:00:50;;;;;;;1.40;0.50;;;;;;;;;;5008418;28;20053;-58
2022/02/28 03:03:17;;;;;;;0.95;0.40;;;;;;;;;;5003398;28;20048;-58
2022/02/28 03:05:43;;;;;;;1.67;0.50;;;;;;;;;;5002706;28;20595;-59
2022/02/28 03:08:09;;;;;;;1.20;0.40;;;;;;;;;;5014614;28;20053;-59
2022/02/28 03:10:35;;;;;;;1.40;0.40;;;;;;;;;;5003266;28;20569;-59
2022/02/28 03:13:01;;;;;;;1.15;0.40;;;;;;;;;;5007692;28;20120;-58
2022/02/28 03:15:27;;;;;;;1.85;0.50;;;;;;;;;;5006957;28;20057;-59
2022/02/28 03:17:56;;;;;;;2.38;0.60;;;;;;;;;;5003380;28;20038;-59
2022/02/28 03:20:22;;;;;;;1.17;0.40;;;;;;;;;;5001573;28;20500;-59
2022/02/28 03:22:49;;;;;;;1.27;0.40;;;;;;;;;;5001690;28;20398;-58
2022/02/28 03:25:15;;;;;;;1.50;0.50;;;;;;;;;;5003706;28;20068;-56
2022/02/28 03:27:41;;;;;;;0.80;0.40;;;;;;;;;;5001115;28;20065;-58
2022/02/28 03:30:08;;;;;;;1.88;0.50;;;;;;;;;;5033195;28;20038;-58
2022/02/28 03:32:33;;;;;;;1.42;0.50;;;;;;;;;;5002755;28;20070;-59
2022/02/28 03:34:59;;;;;;;2.92;0.50;;;;;;;;;;5001906;28;20084;-59
2022/02/28 03:37:25;;;;;;;1.90;0.60;;;;;;;;;;5005170;28;20041;-58
2022/02/28 03:39:55;;;;;;;0.82;0.40;;;;;;;;;;5002955;28;20128;-58
2022/02/28 03:42:21;;;;;;;2.33;0.50;;;;;;;;;;5005035;28;20432;-59
2022/02/28 03:44:47;;;;;;;1.05;0.40;;;;;;;;;;5007005;28;20316;-58
2022/02/28 03:47:13;;;;;;;1.42;0.45;;;;;;;;;;5004597;28;20041;-59
2022/02/28 03:49:39;;;;;;;1.48;0.50;;;;;;;;;;5003614;28;20053;-58
2022/02/28 03:52:05;;;;;;;0.77;0.40;;;;;;;;;;5001333;28;20488;-59
2022/02/28 03:54:31;;;;;;;1.60;0.50;;;;;;;;;;4998695;28;20392;-58
2022/02/28 03:56:57;;;;;;;2.03;0.57;;;;;;;;;;4999636;28;20053;-58
2022/02/28 03:59:23;;;;;;;2.80;0.50;;;;;;;;;;4997527;28;20041;-58
2022/02/28 04:01:49;;;;;;;0.93;0.40;;;;;;;;;;5002794;28;20088;-57
2022/02/28 04:04:16;;;;;;;1.08;0.43;;;;;;;;;;5002447;28;20042;-60
2022/02/28 04:06:45;;;;;;;1.58;0.45;;;;;;;;;;5004916;28;20132;-57
2022/02/28 04:09:12;;;;;;;4.75;0.50;;;;;;;;;;5010258;28;20460;-56
2022/02/28 04:11:38;;;;;;;3.53;0.40;;;;;;;;;;5007992;28;20412;-59
2022/02/28 04:14:04;;;;;;;1.60;0.50;;;;;;;;;;5007354;28;21845;-59
2022/02/28 04:16:30;;;;;;;2.00;0.60;;;;;;;;;;5001980;28;20058;-59
2022/02/28 04:18:56;;;;;;;1.50;0.50;;;;;;;;;;5001437;28;20042;-58
2022/02/28 04:21:23;;;;;;;1.83;0.50;;;;;;;;;;5001841;28;20462;-57
2022/02/28 04:23:51;;;;;;;2.88;0.50;;;;;;;;;;5002935;28;20034;-56
2022/02/28 04:26:18;;;;;;;1.58;0.50;;;;;;;;;;4989456;28;20054;-56
2022/02/28 04:28:44;;;;;;;2.00;0.50;;;;;;;;;;4997798;28;20169;-55
2022/02/28 04:31:11;;;;;;;6.88;0.50;;;;;;;;;;5000015;28;20048;-56
2022/02/28 04:33:36;;;;;;;1.33;0.47;;;;;;;;;;4999924;28;20034;-59
2022/02/28 04:36:03;;;;;;;1.73;0.50;;;;;;;;;;5001211;28;20049;-58
2022/02/28 04:38:29;;;;;;;1.85;0.50;;;;;;;;;;5007956;28;20041;-55
2022/02/28 04:40:55;;;;;;;1.83;0.50;;;;;;;;;;4999735;28;20098;-58
2022/02/28 04:43:21;;;;;;;4.90;0.45;;;;;;;;;;4998926;28;20167;-56
2022/02/28 04:45:46;;;;;;;0.88;0.40;;;;;;;;;;5001312;28;20547;-57
2022/02/28 04:48:12;;;;;;;1.80;0.50;;;;;;;;;;4999797;28;20046;-56
2022/02/28 04:50:38;;;;;;;1.23;0.40;;;;;;;;;;5000717;28;20475;-58
2022/02/28 04:53:04;;;;;;;1.63;0.63;;;;;;;;;;5002688;28;20581;-57
2022/02/28 04:55:30;;;;;;;1.58;0.50;;;;;;;;;;4998099;28;20033;-57
2022/02/28 04:57:56;;;;;;;2.13;0.55;;;;;;;;;;4999333;28;20034;-58
2022/02/28 05:00:22;;;;;;;1.52;0.52;;;;;;;;;;4995208;28;20049;-58
2022/02/28 05:02:48;;;;;;;1.33;0.43;;;;;;;;;;5016564;28;20156;-59
2022/02/28 05:05:14;;;;;;;1.35;0.50;;;;;;;;;;5000986;28;20054;-58
2022/02/28 05:07:40;;;;;;;1.48;0.40;;;;;;;;;;4997540;28;20050;-58
2022/02/28 05:10:06;;;;;;;1.33;0.45;;;;;;;;;;5009339;28;20203;-58
2022/02/28 05:12:34;;;;;;;0.73;0.35;;;;;;;;;;5007746;28;20507;-57
2022/02/28 05:15:00;;;;;;;1.58;0.40;;;;;;;;;;4999796;28;20045;-57
2022/02/28 05:17:26;;;;;;;1.50;0.50;;;;;;;;;;5000621;28;20042;-57
2022/02/28 05:19:52;;;;;;;1.17;0.40;;;;;;;;;;4997114;28;20037;-56
2022/02/28 05:22:18;;;;;;;2.00;0.43;;;;;;;;;;5008336;28;20040;-55
2022/02/28 05:24:44;;;;;;;1.38;0.40;;;;;;;;;;5003327;28;20066;-57
2022/02/28 05:27:10;;;;;;;1.13;0.47;;;;;;;;;;5002149;28;20033;-56
2022/02/28 05:29:37;;;;;;;1.48;0.43;;;;;;;;;;5002170;28;20042;-57
2022/02/28 05:32:03;;;;;;;1.50;0.47;;;;;;;;;;5005027;28;20113;-57
2022/02/28 05:34:29;;;;;;;1.48;0.40;;;;;;;;;;5000600;28;20061;-58
2022/02/28 05:36:55;;;;;;;1.90;0.60;;;;;;;;;;5031150;28;20049;-57
2022/02/28 05:39:21;;;;;;;1.88;0.60;;;;;;;;;;4998425;28;20134;-55
2022/02/28 05:41:47;;;;;;;1.00;0.43;;;;;;;;;;5001613;28;20536;-55
2022/02/28 05:44:13;;;;;;;1.48;0.50;;;;;;;;;;5007283;28;20046;-57
2022/02/28 05:46:38;;;;;;;0.80;0.40;;;;;;;;;;4997134;28;20483;-59
2022/02/28 05:49:05;;;;;;;0.88;0.40;;;;;;;;;;5031909;28;20034;-57
2022/02/28 05:51:31;;;;;;;1.45;0.50;;;;;;;;;;4998526;28;20045;-60
2022/02/28 05:53:58;;;;;;;6.40;0.50;;;;;;;;;;4999798;28;20038;-57
2022/02/28 05:56:24;;;;;;;1.33;0.50;;;;;;;;;;4998383;28;20042;-57
2022/02/28 05:58:50;;;;;;;1.25;0.40;;;;;;;;;;5001217;28;20034;-57
2022/02/28 06:01:16;;;;;;;2.55;0.47;;;;;;;;;;4999938;28;20207;-56
2022/02/28 06:03:42;;;;;;;1.38;0.47;;;;;;;;;;5000454;28;20049;-57
2022/02/28 06:06:08;;;;;;;1.42;0.50;;;;;;;;;;5006027;28;20037;-57
2022/02/28 06:08:34;;;;;;;1.63;0.40;;;;;;;;;;5005932;28;20046;-55
2022/02/28 06:11:00;;;;;;;2.53;0.50;;;;;;;;;;5004480;28;20029;-57
2022/02/28 06:13:26;;;;;;;1.02;0.40;;;;;;;;;;5006028;28;20060;-57
2022/02/28 06:15:51;;;;;;;1.23;0.43;;;;;;;;;;5006992;28;20034;-57
2022/02/28 06:18:17;;;;;;;1.38;0.40;;;;;;;;;;5002932;28;20404;-56
2022/02/28 06:20:43;;;;;;;1.40;0.50;;;;;;;;;;5006258;28;20078;-56
2022/02/28 06:23:14;;;;;;;0.57;0.30;;;;;;;;;;5001926;28;20113;-56
2022/02/28 06:25:41;;;;;;;1.50;0.50;;;;;;;;;;5002978;28;20385;-54
2022/02/28 06:28:07;;;;;;;1.20;0.50;;;;;;;;;;5001631;28;20068;-58
2022/02/28 06:30:33;;;;;;;1.48;0.50;;;;;;;;;;5003268;28;20499;-58
2022/02/28 06:32:59;;;;;;;2.00;0.60;;;;;;;;;;5004641;28;20046;-57
2022/02/28 06:35:25;;;;;;;1.65;0.50;;;;;;;;;;5003132;28;20041;-57
2022/02/28 06:37:51;;;;;;;1.17;0.43;;;;;;;;;;5021184;28;20132;-57
2022/02/28 06:40:16;;;;;;;0.80;0.40;;;;;;;;;;5002977;28;20056;-57
2022/02/28 06:42:42;;;;;;;0.77;0.35;;;;;;;;;;5001288;28;20053;-57
2022/02/28 06:45:08;;;;;;;1.50;0.40;;;;;;;;;;5002031;28;20091;-57
2022/02/28 06:47:34;;;;;;;4.18;0.50;;;;;;;;;;5004206;28;20602;-58
2022/02/28 06:50:00;;;;;;;1.38;0.45;;;;;;;;;;5001378;28;20042;-58
2022/02/28 06:52:26;;;;;;;1.85;0.52;;;;;;;;;;4999796;28;20046;-56
2022/02/28 06:54:56;;;;;;;3.60;0.60;;;;;;;;;;5001965;28;20046;-58
2022/02/28 06:57:22;;;;;;;2.30;0.60;;;;;;;;;;5001100;28;20181;-57
2022/02/28 06:59:48;;;;;;;1.40;0.50;;;;;;;;;;4998724;28;20128;-57
2022/02/28 07:02:14;;;;;;;0.90;0.45;;;;;;;;;;4997777;28;20096;-56
2022/02/28 07:04:40;;;;;;;1.77;0.50;;;;;;;;;;4999985;28;20608;-57
2022/02/28 07:07:06;;;;;;;4.00;0.55;;;;;;;;;;5000647;28;20041;-55
2022/02/28 07:09:32;;;;;;;1.20;0.40;;;;;;;;;;4997724;28;20054;-56
2022/02/28 07:11:58;;;;;;;1.25;0.40;;;;;;;;;;4998278;28;20053;-57
2022/02/28 07:14:24;;;;;;;1.48;0.40;;;;;;;;;;4999044;28;20352;-57
2022/02/28 07:16:49;;;;;;;1.77;0.50;;;;;;;;;;4998712;28;20356;-57
2022/02/28 07:19:16;;;;;;;2.88;0.60;;;;;;;;;;4998933;28;20053;-57
2022/02/28 07:21:44;;;;;;;2.08;0.60;;;;;;;;;;4998122;28;20034;-58
2022/02/28 07:24:10;;;;;;;7.18;0.88;;;;;;;;;;5001254;28;20083;-56
2022/02/28 07:26:35;;;;;;;2.00;0.52;;;;;;;;;;5000506;28;20511;-57
2022/02/28 07:29:01;;;;;;;2.22;0.70;;;;;;;;;;4999737;28;20920;-57
2022/02/28 07:31:27;;;;;;;1.35;0.47;;;;;;;;;;4996915;28;20058;-58
2022/02/28 07:33:53;;;;;;;0.80;0.40;;;;;;;;;;4998872;28;20677;-58
2022/02/28 07:36:19;;;;;;;1.60;0.60;;;;;;;;;;4997860;28;20487;-57
2022/02/28 07:38:45;;;;;;;1.05;0.40;;;;;;;;;;4999864;28;20042;-58
2022/02/28 07:41:11;;;;;;;0.77;0.38;;;;;;;;;;4996700;28;21074;-57
2022/02/28 07:43:37;;;;;;;0.80;0.40;;;;;;;;;;4998442;28;20034;-58
2022/02/28 07:46:03;;;;;;;0.80;0.40;;;;;;;;;;5029796;28;20061;-56
2022/02/28 07:48:29;;;;;;;0.80;0.40;;;;;;;;;;5012539;28;20036;-57
2022/02/28 07:50:55;;;;;;;1.35;0.50;;;;;;;;;;5002384;28;20038;-57
2022/02/28 07:53:21;;;;;;;1.35;0.40;;;;;;;;;;4996295;28;20381;-55
2022/02/28 07:55:47;;;;;;;1.40;0.50;;;;;;;;;;4998415;28;20036;-59
2022/02/28 07:58:13;;;;;;;5.88;0.60;;;;;;;;;;4997844;28;20046;-57
2022/02/28 08:00:39;;;;;;;1.58;0.50;;;;;;;;;;4997176;28;20913;-57
2022/02/28 08:03:05;;;;;;;4.15;0.57;;;;;;;;;;4999829;28;20042;-56
2022/02/28 08:05:31;;;;;;;1.50;0.50;;;;;;;;;;4997971;28;20084;-57
2022/02/28 08:07:57;;;;;;;1.02;0.40;;;;;;;;;;4999329;28;20492;-56
2022/02/28 08:10:23;;;;;;;1.15;0.45;;;;;;;;;;4998098;28;20954;-56
2022/02/28 08:12:49;;;;;;;1.00;0.30;;;;;;;;;;4999948;28;21655;-57
2022/02/28 08:15:15;;;;;;;1.45;0.40;;;;;;;;;;5000215;28;20038;-55
2022/02/28 08:17:41;;;;;;;1.98;0.55;;;;;;;;;;4999746;28;20038;-54
2022/02/28 08:20:08;;;;;;;1.15;0.40;;;;;;;;;;5003149;28;20695;-53
2022/02/28 08:22:34;;;;;;;1.02;0.38;;;;;;;;;;5000599;28;20041;-55
2022/02/28 08:25:01;;;;;;;1.52;0.40;;;;;;;;;;5001808;28;20129;-56
2022/02/28 08:27:27;;;;;;;1.33;0.50;;;;;;;;;;5001952;28;20038;-56
2022/02/28 08:29:53;;;;;;;1.00;0.40;;;;;;;;;;4999758;28;20045;-57
2022/02/28 08:32:19;;;;;;;1.00;0.43;;;;;;;;;;5002079;28;20146;-55
2022/02/28 08:34:44;;;;;;;1.30;0.40;;;;;;;;;;5002895;28;20046;-57
2022/02/28 08:37:10;;;;;;;1.27;0.40;;;;;;;;;;5003940;28;20085;-57
2022/02/28 08:39:36;;;;;;;1.17;0.40;;;;;;;;;;5033856;28;20057;-57
2022/02/28 08:42:02;;;;;;;1.27;0.40;;;;;;;;;;5003553;28;20225;-57
2022/02/28 08:44:28;;;;;;;0.88;0.40;;;;;;;;;;5001343;28;20638;-57
2022/02/28 08:46:54;;;;;;;1.13;0.40;;;;;;;;;;5014032;28;20218;-57
2022/02/28 08:49:20;;;;;;;0.90;0.40;;;;;;;;;;4999277;28;20129;-56
2022/02/28 08:51:46;;;;;;;1.20;0.40;;;;;;;;;;5001558;28;20048;-57
2022/02/28 08:54:12;;;;;;;0.73;0.40;;;;;;;;;;4999528;28;20185;-57
2022/02/28 08:56:39;;;;;;;1.15;0.40;;;;;;;;;;4995767;28;20045;-57
2022/02/28 08:59:05;;;;;;;1.05;0.40;;;;;;;;;;4998461;28;20066;-57
2022/02/28 09:01:31;;;;;;;1.08;0.40;;;;;;;;;;4997271;28;20049;-57
2022/02/28 09:03:57;;;;;;;0.80;0.40;;;;;;;;;;4998726;28;20045;-57
2022/02/28 09:06:23;;;;;;;1.50;0.40;;;;;;;;;;4997807;28;20418;-57
2022/02/28 09:08:49;;;;;;;1.38;0.50;;;;;;;;;;4997707;28;20053;-57
2022/02/28 09:11:16;;;;;;;0.90;0.40;;;;;;;;;;4999268;28;20049;-57
2022/02/28 09:13:42;;;;;;;1.65;0.40;;;;;;;;;;4996364;28;20103;-55
2022/02/28 09:16:08;;;;;;;1.75;0.55;;;;;;;;;;4996410;28;20038;-54
2022/02/28 09:18:34;;;;;;;1.35;0.40;;;;;;;;;;4995094;28;20134;-56
2022/02/28 09:21:00;;;;;;;0.80;0.38;;;;;;;;;;4998678;28;20499;-57
2022/02/28 09:23:26;;;;;;;1.42;0.50;;;;;;;;;;4998196;28;20049;-55
2022/02/28 09:25:52;;;;;;;1.50;0.50;;;;;;;;;;5007102;28;20050;-53
2022/02/28 09:28:18;;;;;;;1.85;0.50;;;;;;;;;;5001385;28;20083;-56
2022/02/28 09:30:44;;;;;;;1.67;0.50;;;;;;;;;;4997994;28;20041;-56
2022/02/28 09:33:10;;;;;;;1.65;0.55;;;;;;;;;;4998913;28;20065;-58
2022/02/28 09:35:36;;;;;;;1.38;0.40;;;;;;;;;;4999431;28;20129;-57
2022/02/28 09:38:03;;;;;;;1.13;0.40;;;;;;;;;;5018757;28;20049;-58
2022/02/28 09:40:31;;;;;;;2.60;0.60;;;;;;;;;;5003389;28;20037;-55
2022/02/28 09:42:59;;;;;;;1.50;0.50;;;;;;;;;;5008551;28;20041;-57
2022/02/28 09:45:25;;;;;;;1.40;0.50;;;;;;;;;;5043076;28;20046;-58
2022/02/28 09:47:51;;;;;;;1.38;0.40;;;;;;;;;;5004285;28;20061;-57
2022/02/28 09:50:18;;;;;;;1.02;0.40;;;;;;;;;;5036223;28;20072;-58
2022/02/28 09:52:43;;;;;;;1.83;0.40;;;;;;;;;;5003442;28;20120;-57
2022/02/28 09:55:14;;;;;;;1.70;0.47;;;;;;;;;;5001465;28;20133;-57
2022/02/28 09:57:47;;;;;;;1.73;0.50;;;;;;;;;;5003008;28;20049;-57
2022/02/28 10:00:13;;;;;;;;;;;;;;;;;;5013103;28;20049;-57
2022/02/28 10:02:39;;;;;;;2.75;0.55;;;;;;;;;;5004547;28;19924;-54
2022/02/28 10:05:05;;;;;;;1.85;0.43;;;;;;;;;;5007290;28;20046;-58
2022/02/28 10:07:31;;;;;;;1.95;0.50;;;;;;;;;;5002489;28;20049;-59
2022/02/28 10:10:10;;;;;;;0.57;0.30;;;;;;;;;;5003784;28;20042;-55
2022/02/28 10:12:36;;;;;;;0.88;0.40;;;;;;;;;;4999060;28;20126;-55
2022/02/28 10:15:08;;;;;;;2.13;0.50;;;;;;;;;;5004993;28;20042;-58
2022/02/28 10:17:43;;;;;;;1.90;0.50;;;;;;;;;;5000601;28;20048;-57
2022/02/28 10:20:14;;;;;;;0.80;0.40;;;;;;;;;;5002855;28;20060;-55
2022/02/28 10:22:39;;;;;;;1.20;0.40;;;;;;;;;;5002018;28;20088;-58
2022/02/28 10:25:05;;;;;;;1.48;0.50;;;;;;;;;;5001929;28;20042;-57
2022/02/28 10:27:31;;;;;;;1.25;0.40;;;;;;;;;;5003124;28;20476;-57
2022/02/28 10:29:57;;;;;;;1.40;0.50;;;;;;;;;;5000574;28;20061;-56
2022/02/28 10:32:27;;;;;;;1.05;0.50;;;;;;;;;;4998501;28;20684;-57
2022/02/28 10:37:46;;;;;;;1.10;0.40;;;;;;;;;;4999279;28;20128;-57
2022/02/28 10:40:12;;;;;;;2.13;0.50;;;;;;;;;;4999934;28;20076;-57
2022/02/28 10:42:48;;;;;;;1.42;0.40;;;;;;;;;;4998196;28;20045;-57
2022/02/28 10:45:21;;;;;;;1.17;0.40;;;;;;;;;;5003214;28;20186;-56
2022/02/28 10:47:48;;;;;;;0.95;0.40;;;;;;;;;;4999156;28;20033;-56
2022/02/28 10:50:30;;;;;;;0.60;0.38;;;;;;;;;;5000437;28;20081;-57
2022/02/28 10:52:57;;;;;;;1.08;0.40;;;;;;;;;;5000467;28;20128;-57
2022/02/28 10:55:33;;;;;;;1.75;0.50;;;;;;;;;;4999164;28;20049;-57
2022/02/28 10:58:06;;;;;;;1.10;0.40;;;;;;;;;;5000196;28;20042;-57
2022/02/28 11:00:32;;;;;;;1.45;0.40;;;;;;;;;;4998833;28;20129;-55
2022/02/28 11:03:04;;;;;;;1.17;0.40;;;;;;;;;;5002635;28;20049;-57
2022/02/28 11:05:30;;;;;;;1.40;0.40;;;;;;;;;;5001019;28;20092;-56
2022/02/28 11:07:59;;;;;;;1.05;0.40;;;;;;;;;;4999951;28;20083;-58
2022/02/28 11:10:25;;;;;;;1.63;0.50;;;;;;;;;;4999172;28;20046;-57
2022/02/28 11:12:51;;;;;;;1.33;0.40;;;;;;;;;;5000099;28;20042;-57
2022/02/28 11:15:19;;;;;;;1.00;0.50;;;;;;;;;;5000352;28;20037;-56
2022/02/28 11:17:48;;;;;;;4.00;0.50;;;;;;;;;;4999399;28;20579;-57
2022/02/28 11:20:16;;;;;;;1.83;0.50;;;;;;;;;;5001975;28;20512;-57
2022/02/28 11:22:43;;;;;;;1.75;0.50;;;;;;;;;;4999822;28;20529;-57
2022/02/28 11:25:11;;;;;;;1.92;0.43;;;;;;;;;;5000075;28;20036;-57
2022/02/28 11:27:38;;;;;;;1.52;0.45;;;;;;;;;;4996414;28;20121;-57
2022/02/28 11:30:24;;;;;;;1.45;0.40;;;;;;;;;;5000234;28;20042;-58
2022/02/28 11:32:58;;;;;;;1.63;0.50;;;;;;;;;;5000769;28;20040;-57
2022/02/28 11:35:38;;;;;;;2.53;0.77;;;;;;;;;;4999302;28;20042;-57
2022/02/28 11:38:12;;;;;;;2.60;0.50;;;;;;;;;;4997635;28;20041;-57
2022/02/28 11:40:39;;;;;;;1.65;0.50;;;;;;;;;;5000171;28;20053;-57
2022/02/28 11:43:14;;;;;;;4.75;0.50;;;;;;;;;;4998004;28;20137;-57
2022/02/28 11:45:51;;;;;;;0.90;0.40;;;;;;;;;;4998004;28;20037;-57
2022/02/28 11:48:22;;;;;;;0.85;0.40;;;;;;;;;;4997392;28;20050;-57
2022/02/28 11:50:59;;;;;;;1.17;0.40;;;;;;;;;;4996898;28;20042;-57
2022/02/28 11:53:39;;;;;;;1.88;0.50;;;;;;;;;;4998581;28;20137;-57
2022/02/28 11:56:34;;;;;;;1.80;0.55;;;;;;;;;;5015664;28;20057;-56
2022/02/28 11:59:04;;;;;;;1.73;0.50;;;;;;;;;;4995759;28;20042;-56
2022/02/28 12:01:40;;;;;;;4.15;0.57;;;;;;;;;;4998202;28;20101;-56
2022/02/28 12:04:16;;;;;;;1.90;0.60;;;;;;;;;;4998626;28;20050;-56
2022/02/28 12:06:52;;;;;;;1.58;0.50;;;;;;;;;;4998468;28;20042;-56
2022/02/28 12:09:33;;;;;;;1.25;0.50;;;;;;;;;;5031828;28;20117;-57
2022/02/28 12:12:19;;;;;;;1.25;0.40;;;;;;;;;;5002243;28;20042;-57
2022/02/28 12:17:35;;;;;;;3.40;0.70;;;;;;;;;;5001720;28;20045;-56
2022/02/28 12:20:22;;;;;;;4.07;0.70;;;;;;;;;;4999092;28;20049;-57
2022/02/28 12:25:40;;;;;;;3.97;0.60;;;;;;;;;;4997094;28;20034;-56
2022/02/28 12:28:14;;;;;;;1.52;0.50;;;;;;;;;;4997613;28;20049;-57
2022/02/28 12:30:43;;;;;;;1.20;0.40;;;;;;;;;;4997986;28;20484;-56
2022/02/28 12:33:11;;;;;;;2.00;0.50;;;;;;;;;;4997391;28;20124;-56
2022/02/28 12:35:49;;;;;;;4.68;0.65;;;;;;;;;;4997788;28;20077;-58
2022/02/28 12:38:15;;;;;;;2.03;0.55;;;;;;;;;;4997056;28;20096;-54
2022/02/28 12:41:04;;;;;;;2.33;0.70;;;;;;;;;;4996411;28;20317;-56
2022/02/28 12:43:32;;;;;;;4.40;0.70;;;;;;;;;;4993753;28;20786;-56
2022/02/28 12:46:03;;;;;;;2.17;0.65;;;;;;;;;;4999873;28;20045;-59
2022/02/28 12:48:29;;;;;;;3.05;0.80;;;;;;;;;;5013533;28;20546;-56
2022/02/28 12:50:56;;;;;;;4.25;0.85;;;;;;;;;;4998072;28;20048;-56
2022/02/28 12:53:26;;;;;;;1.88;0.60;;;;;;;;;;4997993;28;20048;-56
2022/02/28 12:55:52;;;;;;;5.90;0.70;;;;;;;;;;5000400;28;20098;-56
2022/02/28 12:58:21;;;;;;;13.18;0.90;;;;;;;;;;5000097;28;20770;-58
2022/02/28 13:00:48;;;;;;;2.70;0.68;;;;;;;;;;5001358;28;20144;-57
2022/02/28 13:03:14;;;;;;;1.80;0.60;;;;;;;;;;4998228;28;20751;-54
2022/02/28 13:05:40;;;;;;;1.55;0.50;;;;;;;;;;5002078;28;20403;-53
2022/02/28 13:08:06;;;;;;;2.40;0.60;;;;;;;;;;5006470;28;20054;-56
2022/02/28 13:10:32;;;;;;;1.35;0.50;;;;;;;;;;5004589;28;20080;-55
2022/02/28 13:12:58;;;;;;;2.45;0.70;;;;;;;;;;5001834;28;20049;-56
2022/02/28 13:15:28;;;;;;;5.20;0.98;;;;;;;;;;5006106;28;20068;-56
2022/02/28 13:17:54;;;;;;;6.57;0.80;;;;;;;;;;5005788;28;20038;-55
2022/02/28 13:20:20;;;;;;;3.10;0.88;;;;;;;;;;5001761;28;20183;-56
2022/02/28 13:22:46;;;;;;;6.75;0.80;;;;;;;;;;5005213;28;20057;-56
2022/02/28 13:25:15;;;;;;;10.57;2.50;;;;;;;;;;5006790;28;20641;-57
2022/02/28 13:27:42;;;;;;;12.20;3.50;;;;;;;;;;5002329;28;20475;-57
2022/02/28 13:30:08;;;;;;;10.20;2.67;;;;;;;;;;5021282;28;20041;-55
2022/02/28 13:32:36;;;;;;;8.00;2.00;;;;;;;;;;5000430;28;20041;-56
2022/02/28 13:35:02;;;;;;;9.07;1.50;;;;;;;;;;4998835;28;20391;-58
2022/02/28 13:37:29;;;;;;;10.73;1.10;;;;;;;;;;4996639;28;20050;-58
2022/02/28 13:39:57;;;;;;;3.60;1.05;;;;;;;;;;4997836;28;20049;-57
2022/02/28 13:42:26;;;;;;;4.57;1.15;;;;;;;;;;4998553;28;20118;-56
2022/02/28 13:44:54;;;;;;;7.38;1.02;;;;;;;;;;5032039;28;20041;-57
2022/02/28 13:47:26;;;;;;;4.30;0.73;;;;;;;;;;4995830;28;20044;-54
2022/02/28 13:49:59;;;;;;;4.20;1.08;;;;;;;;;;4998781;28;20094;-57
2022/02/28 13:52:28;;;;;;;2.42;0.70;;;;;;;;;;4997366;28;20184;-57
2022/02/28 13:55:01;;;;;;;4.68;0.75;;;;;;;;;;5002283;28;20038;-59
2022/02/28 13:57:28;;;;;;;3.38;1.08;;;;;;;;;;5001268;28;20538;-57
2022/02/28 14:00:14;;;;;;;11.10;1.20;;;;;;;;;;4999799;28;20052;-59
2022/02/28 14:02:53;;;;;;;3.30;0.90;;;;;;;;;;4996805;28;20906;-56
2022/02/28 14:05:20;;;;;;;5.57;0.95;;;;;;;;;;4998532;28;20092;-56
2022/02/28 14:07:59;;;;;;;6.57;0.80;;;;;;;;;;4994510;28;20120;-57
2022/02/28 14:10:27;;;;;;;2.70;0.88;;;;;;;;;;5012791;28;20043;-57
2022/02/28 14:12:54;;;;;;;2.30;0.63;;;;;;;;;;4999517;28;20049;-59
2022/02/28 14:15:27;;;;;;;3.05;0.90;;;;;;;;;;4998948;28;20041;-57
2022/02/28 14:18:01;;;;;;;4.18;1.00;;;;;;;;;;5005135;28;20037;-57
2022/02/28 14:20:27;;;;;;;4.55;1.00;;;;;;;;;;4996718;28;20085;-56
2022/02/28 14:23:22;;;;;;;7.78;1.20;;;;;;;;;;4995948;28;20038;-56
2022/02/28 14:25:50;;;;;;;4.55;1.20;;;;;;;;;;4990506;28;20130;-56
2022/02/28 14:28:18;;;;;;;4.97;1.15;;;;;;;;;;5032181;28;20046;-56
2022/02/28 14:30:48;;;;;;;4.32;1.00;;;;;;;;;;5002375;28;20796;-56
2022/02/28 14:33:14;;;;;;;6.97;1.42;;;;;;;;;;4999714;28;20100;-55
2022/02/28 14:35:40;;;;;;;8.73;1.38;;;;;;;;;;4999325;28;20042;-56
2022/02/28 14:38:07;;;;;;;4.53;1.17;;;;;;;;;;4998866;28;20076;-56
2022/02/28 14:40:33;;;;;;;6.25;1.17;;;;;;;;;;5001427;28;20049;-57
2022/02/28 14:42:59;;;;;;;5.22;1.40;;;;;;;;;;5015878;28;20042;-57
2022/02/28 14:45:26;;;;;;;6.15;1.25;;;;;;;;;;4999283;28;20046;-57
2022/02/28 14:47:52;;;;;;;4.10;1.10;;;;;;;;;;4999801;28;20840;-55
2022/02/28 14:50:18;;;;;;;6.22;1.40;;;;;;;;;;5018610;28;20041;-58
2022/02/28 14:52:44;;;;;;;5.80;1.58;;;;;;;;;;5001518;28;20117;-55